createdAt,value
2023-02-02T00:00:51.601Z,102203.44
2023-02-02T00:03:38.362Z,102207.78
2023-02-02T00:06:26.239Z,102212.16
2023-02-02T00:09:14.094Z,102220.06
2023-02-02T00:12:00.943Z,102208.06
2023-02-02T00:14:46.369Z,102203.72
2023-02-02T00:17:31.633Z,102202.91
2023-02-02T00:20:17.004Z,102203.72
2023-02-02T00:23:04.291Z,102213.31
2023-02-02T00:25:51.088Z,102209.94
2023-02-02T00:28:36.996Z,102202.28
2023-02-02T00:31:22.750Z,102198.91
2023-02-02T00:34:09.870Z,102200.69
2023-02-02T00:36:55.645Z,102199.00
2023-02-02T00:39:41.290Z,102199.97
2023-02-02T00:42:26.847Z,102192.22
2023-02-02T00:45:17.105Z,102200.06
2023-02-02T00:48:04.304Z,102199.28
2023-02-02T00:50:49.957Z,102196.72
2023-02-02T00:53:35.266Z,102192.47
2023-02-02T00:56:20.715Z,102200.31
2023-02-02T00:59:06.568Z,102191.66
2023-02-02T01:01:52.095Z,102189.06
2023-02-02T01:04:37.956Z,102191.72
2023-02-02T01:07:23.419Z,102183.09
2023-02-02T01:10:14.335Z,102185.78
2023-02-02T01:13:01.590Z,102188.38
2023-02-02T01:15:47.166Z,102184.97
2023-02-02T01:18:32.584Z,102191.03
2023-02-02T01:21:18.127Z,102193.72
2023-02-02T01:24:03.714Z,102196.41
2023-02-02T01:26:49.412Z,102191.25
2023-02-02T01:29:35.337Z,102192.94
2023-02-02T01:32:20.589Z,102183.44
2023-02-02T01:35:06.439Z,102182.59
2023-02-02T01:37:51.687Z,102195.59
2023-02-02T01:40:37.102Z,102192.16
2023-02-02T01:43:25.101Z,102180.94
2023-02-02T01:46:15.155Z,102182.66
2023-02-02T01:49:08.952Z,102193.16
2023-02-02T01:52:00.641Z,102179.28
2023-02-02T01:54:53.777Z,102176.72
2023-02-02T01:57:46.983Z,102184.56
2023-02-02T02:00:32.383Z,102172.44
2023-02-02T02:03:25.376Z,102177.72
2023-02-02T02:06:15.779Z,102180.31
2023-02-02T02:09:04.370Z,102176.91
2023-02-02T02:11:50.087Z,102169.97
2023-02-02T02:14:54.544Z,102172.56
2023-02-02T02:17:58.266Z,102173.41
2023-02-02T02:21:26.060Z,102169.88
2023-02-02T02:25:08.358Z,102179.38
2023-02-02T02:28:32.099Z,102181.06
2023-02-02T02:31:35.696Z,102179.28
2023-02-02T02:34:37.945Z,102172.28
2023-02-02T02:37:43.032Z,102166.06
2023-02-02T02:41:01.108Z,102158.13
2023-02-02T02:44:01.447Z,102163.28
2023-02-02T02:46:48.249Z,102158.91
2023-02-02T02:49:33.974Z,102153.72
2023-02-02T02:52:19.229Z,102155.47
2023-02-02T02:55:07.000Z,102164.16
2023-02-02T02:58:01.819Z,102151.19
2023-02-02T03:00:57.619Z,102152.03
2023-02-02T03:04:12.334Z,102171.16
2023-02-02T03:07:03.645Z,102172.09
2023-02-02T03:09:51.427Z,102166.06
2023-02-02T03:12:45.374Z,102166.94
2023-02-02T03:15:30.604Z,102160.88
2023-02-02T03:18:19.290Z,102155.66
2023-02-02T03:21:04.767Z,102153.97
2023-02-02T03:23:50.394Z,102161.81
2023-02-02T03:26:36.190Z,102153.19
2023-02-02T03:29:21.884Z,102158.44
2023-02-02T03:32:07.442Z,102166.25
2023-02-02T03:34:53.079Z,102159.19
2023-02-02T03:37:38.414Z,102166.06
2023-02-02T03:40:24.182Z,102165.06
2023-02-02T03:43:09.775Z,102171.97
2023-02-02T03:46:00.773Z,102175.34
2023-02-02T03:48:46.201Z,102180.44
2023-02-02T03:51:31.613Z,102180.41
2023-02-02T03:54:16.933Z,102176.81
2023-02-02T03:57:02.201Z,102179.34
2023-02-02T03:59:47.478Z,102182.84
2023-02-02T04:02:32.841Z,102187.16
2023-02-02T04:05:18.391Z,102187.09
2023-02-02T04:08:03.829Z,102183.63
2023-02-02T04:10:49.603Z,102181.91
2023-02-02T04:13:34.899Z,102181.97
2023-02-02T04:16:20.473Z,102178.56
2023-02-02T04:19:05.901Z,102176.88
2023-02-02T04:21:51.367Z,102176.97
2023-02-02T04:24:38.112Z,102174.38
2023-02-02T04:27:23.930Z,102177.94
2023-02-02T04:30:10.463Z,102170.19
2023-02-02T04:32:56.379Z,102179.81
2023-02-02T04:35:43.622Z,102169.41
2023-02-02T04:38:29.016Z,102170.28
2023-02-02T04:41:14.779Z,102168.53
2023-02-02T04:44:00.185Z,102166.75
2023-02-02T04:46:45.805Z,102170.19
2023-02-02T04:49:31.219Z,102157.13
2023-02-02T04:52:16.721Z,102157.13
2023-02-02T04:55:02.442Z,102163.16
2023-02-02T04:57:47.935Z,102161.50
2023-02-02T05:00:33.692Z,102166.81
2023-02-02T05:03:19.359Z,102172.91
2023-02-02T05:06:05.610Z,102174.69
2023-02-02T05:08:51.121Z,102180.88
2023-02-02T05:11:36.543Z,102176.56
2023-02-02T05:14:22.166Z,102177.44
2023-02-02T05:17:07.534Z,102180.78
2023-02-02T05:19:52.796Z,102176.31
2023-02-02T05:22:38.281Z,102178.75
2023-02-02T05:25:24.151Z,102179.47
2023-02-02T05:28:09.711Z,102184.59
2023-02-02T05:30:55.094Z,102178.50
2023-02-02T05:33:40.385Z,102175.00
2023-02-02T05:36:25.765Z,102176.66
2023-02-02T05:39:11.317Z,102165.53
2023-02-02T05:41:56.970Z,102161.31
2023-02-02T05:44:42.103Z,102157.13
2023-02-02T05:47:27.558Z,102138.97
2023-02-02T05:50:12.969Z,102139.88
2023-02-02T05:52:59.586Z,102140.84
2023-02-02T05:55:45.836Z,102136.63
2023-02-02T05:58:31.368Z,102142.78
2023-02-02T06:01:18.401Z,102135.94
2023-02-02T06:04:04.151Z,102143.66
2023-02-02T06:06:49.318Z,102143.50
2023-02-02T06:09:34.697Z,102139.03
2023-02-02T06:12:20.232Z,102138.91
2023-02-02T06:15:06.343Z,102137.13
2023-02-02T06:17:51.813Z,102141.59
2023-02-02T06:20:37.166Z,102135.66
2023-02-02T06:23:22.553Z,102138.28
2023-02-02T06:26:08.414Z,102137.47
2023-02-02T06:28:54.623Z,102125.25
2023-02-02T06:31:40.234Z,102134.69
2023-02-02T06:34:25.628Z,102132.97
2023-02-02T06:37:11.074Z,102134.78
2023-02-02T06:39:56.585Z,102118.13
2023-02-02T06:42:42.183Z,102127.56
2023-02-02T06:45:28.845Z,102133.47
2023-02-02T06:48:14.430Z,102127.13
2023-02-02T06:50:59.978Z,102132.16
2023-02-02T06:53:48.958Z,102135.50
2023-02-02T06:56:34.353Z,102136.31
2023-02-02T06:59:20.764Z,102141.59
2023-02-02T07:02:06.530Z,102154.59
2023-02-02T07:04:51.841Z,102151.25
2023-02-02T07:07:37.140Z,102149.53
2023-02-02T07:11:12.636Z,102144.19
2023-02-02T07:13:27.836Z,102141.56
2023-02-02T07:16:14.234Z,102150.25
2023-02-02T07:18:59.379Z,102145.06
2023-02-02T07:21:44.638Z,102133.75
2023-02-02T07:24:30.092Z,102131.03
2023-02-02T07:27:15.464Z,102137.81
2023-02-02T07:30:00.815Z,102146.47
2023-02-02T07:32:50.555Z,102138.72
2023-02-02T07:35:35.998Z,102140.50
2023-02-02T07:38:21.426Z,102142.38
2023-02-02T07:41:06.917Z,102126.00
2023-02-02T07:43:52.357Z,102124.31
2023-02-02T07:46:38.020Z,102116.66
2023-02-02T07:49:24.376Z,102119.38
2023-02-02T07:52:09.797Z,102121.22
2023-02-02T07:55:05.375Z,102125.59
2023-02-02T07:57:59.151Z,102134.97
2023-02-02T08:00:44.801Z,102122.63
2023-02-02T08:03:30.617Z,102139.91
2023-02-02T08:06:28.582Z,102144.19
2023-02-02T08:09:14.142Z,102162.34
2023-02-02T08:12:01.934Z,102145.00
2023-02-02T08:14:47.637Z,102144.16
2023-02-02T08:17:32.912Z,102150.31
2023-02-02T08:20:18.618Z,102155.53
2023-02-02T08:23:04.279Z,102138.22
2023-02-02T08:25:53.547Z,102135.53
2023-02-02T08:28:40.688Z,102138.13
2023-02-02T08:31:35.323Z,102142.38
2023-02-02T08:34:20.636Z,102138.03
2023-02-02T08:37:05.902Z,102137.31
2023-02-02T08:39:51.642Z,102133.13
2023-02-02T08:42:37.412Z,102133.28
2023-02-02T08:46:04.470Z,102133.41
2023-02-02T08:48:28.290Z,102126.63
2023-02-02T08:51:16.308Z,102140.72
2023-02-02T08:54:01.705Z,102140.81
2023-02-02T08:56:47.069Z,102152.25
2023-02-02T08:59:32.336Z,102153.19
2023-02-02T09:02:18.835Z,102151.53
2023-02-02T09:05:04.737Z,102151.59
2023-02-02T09:07:50.358Z,102154.28
2023-02-02T09:10:37.115Z,102147.38
2023-02-02T09:13:23.381Z,102147.44
2023-02-02T09:16:11.220Z,102149.97
2023-02-02T09:18:57.752Z,102150.81
2023-02-02T09:21:43.217Z,102156.88
2023-02-02T09:24:28.583Z,102165.53
2023-02-02T09:27:13.985Z,102166.50
2023-02-02T09:29:59.274Z,102165.69
2023-02-02T09:32:45.662Z,102162.34
2023-02-02T09:35:31.136Z,102154.72
2023-02-02T09:38:16.600Z,102164.41
2023-02-02T09:41:31.132Z,102160.22
2023-02-02T09:44:37.676Z,102162.09
2023-02-02T09:47:53.893Z,102161.34
2023-02-02T09:50:47.390Z,102164.03
2023-02-02T09:53:55.185Z,102167.50
2023-02-02T09:56:45.627Z,102176.13
2023-02-02T09:59:40.557Z,102166.66
2023-02-02T10:02:38.817Z,102177.94
2023-02-02T10:05:29.840Z,102182.25
2023-02-02T10:08:34.696Z,102181.41
2023-02-02T10:11:30.878Z,102175.47
2023-02-02T10:14:35.144Z,102177.31
2023-02-02T10:17:45.188Z,102193.03
2023-02-02T10:20:43.866Z,102197.19
2023-02-02T10:23:34.151Z,102207.31
2023-02-02T10:26:20.964Z,102212.47
2023-02-02T10:29:34.683Z,102209.09
2023-02-02T10:32:28.630Z,102203.28
2023-02-02T10:35:40.478Z,102212.16
2023-02-02T10:38:44.670Z,102207.13
2023-02-02T10:41:38.482Z,102202.94
2023-02-02T10:44:56.390Z,102214.34
2023-02-02T10:47:41.838Z,102204.72
2023-02-02T10:50:28.171Z,102220.38
2023-02-02T10:53:15.503Z,102227.34
2023-02-02T10:56:08.844Z,102232.47
2023-02-02T10:58:57.495Z,102234.97
2023-02-02T11:01:42.901Z,102239.09
2023-02-02T11:04:48.438Z,102235.63
2023-02-02T11:07:33.945Z,102227.91
2023-02-02T11:10:20.477Z,102227.19
2023-02-02T11:13:12.313Z,102239.38
2023-02-02T11:16:19.861Z,102225.41
2023-02-02T11:19:17.297Z,102224.47
2023-02-02T11:22:03.951Z,102231.28
2023-02-02T11:24:49.847Z,102226.13
2023-02-02T11:27:41.348Z,102225.34
2023-02-02T11:30:27.466Z,102211.66
2023-02-02T11:33:33.959Z,102205.69
2023-02-02T11:36:21.655Z,102207.72
2023-02-02T11:39:20.803Z,102195.69
2023-02-02T11:42:23.085Z,102189.75
2023-02-02T11:45:18.244Z,102177.88
2023-02-02T11:48:15.790Z,102186.81
2023-02-02T11:51:02.330Z,102172.13
2023-02-02T11:53:49.570Z,102181.78
2023-02-02T11:56:38.259Z,102153.28
2023-02-02T11:59:38.894Z,102160.28
2023-02-02T12:02:28.669Z,102155.22
2023-02-02T12:05:20.437Z,102160.56
2023-02-02T12:08:06.984Z,102167.56
2023-02-02T12:10:59.187Z,102170.09
2023-02-02T12:13:59.872Z,102162.28
2023-02-02T12:17:39.082Z,102152.84
2023-02-02T12:20:50.704Z,102141.59
2023-02-02T12:23:39.222Z,102145.19
2023-02-02T12:26:34.222Z,102138.25
2023-02-02T12:29:33.513Z,102130.47
2023-02-02T12:32:53.031Z,102130.44
2023-02-02T12:35:52.628Z,102129.38
2023-02-02T12:39:11.313Z,102138.66
2023-02-02T12:42:27.592Z,102142.63
2023-02-02T12:45:30.620Z,102131.31
2023-02-02T12:48:15.986Z,102123.56
2023-02-02T12:51:10.739Z,102114.97
2023-02-02T12:54:33.625Z,102102.94
2023-02-02T12:57:17.186Z,102103.25
2023-02-02T13:00:12.779Z,102098.19
2023-02-02T13:03:34.237Z,102091.38
2023-02-02T13:06:30.047Z,102093.97
2023-02-02T13:09:30.326Z,102105.19
2023-02-02T13:12:21.898Z,102092.16
2023-02-02T13:15:12.563Z,102098.22
2023-02-02T13:18:01.780Z,102106.09
2023-02-02T13:21:03.103Z,102106.00
2023-02-02T13:23:52.209Z,102111.09
2023-02-02T13:26:44.544Z,102110.28
2023-02-02T13:30:02.566Z,102114.56
2023-02-02T13:32:51.006Z,102112.06
2023-02-02T13:35:58.129Z,102101.91
2023-02-02T13:38:45.753Z,102107.19
2023-02-02T13:41:31.932Z,102095.06
2023-02-02T13:44:21.778Z,102098.56
2023-02-02T13:47:26.457Z,102095.97
2023-02-02T13:50:15.793Z,102081.97
2023-02-02T13:53:26.500Z,102090.59
2023-02-02T13:56:33.619Z,102087.97
2023-02-02T13:59:31.482Z,102094.84
2023-02-02T14:02:44.292Z,102098.94
2023-02-02T14:05:41.472Z,102100.28
2023-02-02T14:08:28.993Z,102109.66
2023-02-02T14:11:38.069Z,102121.53
2023-02-02T14:14:33.542Z,102115.13
2023-02-02T14:17:22.145Z,102113.22
2023-02-02T14:20:44.706Z,102116.50
2023-02-02T14:23:51.233Z,102118.00
2023-02-02T14:26:41.989Z,102127.56
2023-02-02T14:29:33.353Z,102123.22
2023-02-02T14:32:25.151Z,102122.47
2023-02-02T14:35:18.578Z,102104.31
2023-02-02T14:38:29.152Z,102088.75
2023-02-02T14:42:00.457Z,102091.47
2023-02-02T14:45:32.280Z,102101.84
2023-02-02T14:48:25.548Z,102106.88
2023-02-02T14:51:21.667Z,102107.59
2023-02-02T14:54:08.713Z,102122.16
2023-02-02T14:56:58.466Z,102137.56
2023-02-02T14:59:47.637Z,102126.97
2023-02-02T15:02:36.729Z,102099.06
2023-02-02T15:05:34.273Z,102082.53
2023-02-02T15:08:27.610Z,102080.75
2023-02-02T15:11:42.107Z,102076.41
2023-02-02T15:14:36.305Z,102065.25
2023-02-02T15:17:33.692Z,102077.56
2023-02-02T15:20:26.477Z,102059.59
2023-02-02T15:23:27.199Z,102050.44
2023-02-02T15:26:22.358Z,102060.16
2023-02-02T15:29:17.451Z,102068.19
2023-02-02T15:32:05.680Z,102076.06
2023-02-02T15:34:58.283Z,102090.94
2023-02-02T15:37:55.371Z,102094.44
2023-02-02T15:40:41.188Z,102093.72
2023-02-02T15:43:27.961Z,102092.91
2023-02-02T15:46:23.955Z,102080.78
2023-02-02T15:49:33.429Z,102072.22
2023-02-02T15:52:26.172Z,102079.13
2023-02-02T15:55:24.376Z,102079.97
2023-02-02T15:58:32.134Z,102092.13
2023-02-02T16:01:21.277Z,102092.00
2023-02-02T16:04:22.622Z,102100.66
2023-02-02T16:07:14.650Z,102081.53
2023-02-02T16:10:07.369Z,102078.94
2023-02-02T16:12:52.957Z,102074.66
2023-02-02T16:15:38.365Z,102064.22
2023-02-02T16:18:24.113Z,102080.66
2023-02-02T16:21:20.088Z,102077.13
2023-02-02T16:24:11.974Z,102071.00
2023-02-02T16:27:00.274Z,102077.00
2023-02-02T16:29:46.223Z,102071.75
2023-02-02T16:32:34.536Z,102063.13
2023-02-02T16:35:38.722Z,102063.13
2023-02-02T16:38:35.381Z,102073.59
2023-02-02T16:41:35.238Z,102078.72
2023-02-02T16:44:43.467Z,102090.78
2023-02-02T16:47:30.506Z,102094.25
2023-02-02T16:50:27.196Z,102107.25
2023-02-02T16:53:22.931Z,102109.84
2023-02-02T16:56:10.217Z,102117.66
2023-02-02T16:58:59.914Z,102117.69
2023-02-02T17:01:50.174Z,102096.81
2023-02-02T17:04:36.734Z,102099.25
2023-02-02T17:07:23.065Z,102100.72
2023-02-02T17:10:20.433Z,102092.56
2023-02-02T17:13:36.635Z,102113.31
2023-02-02T17:16:24.759Z,102109.75
2023-02-02T17:19:10.359Z,102128.84
2023-02-02T17:21:57.058Z,102133.31
2023-02-02T17:24:48.112Z,102148.16
2023-02-02T17:27:35.321Z,102146.66
2023-02-02T17:30:21.077Z,102166.81
2023-02-02T17:33:11.798Z,102155.63
2023-02-02T17:35:57.430Z,102168.69
2023-02-02T17:38:42.783Z,102178.25
2023-02-02T17:41:28.208Z,102180.69
2023-02-02T17:44:13.589Z,102220.91
2023-02-02T17:46:58.986Z,102214.44
2023-02-02T17:49:44.459Z,102228.06
2023-02-02T17:52:29.717Z,102225.09
2023-02-02T17:55:20.755Z,102229.13
2023-02-02T17:58:06.590Z,102229.19
2023-02-02T18:00:58.998Z,102214.41
2023-02-02T18:03:46.209Z,102217.13
2023-02-02T18:06:31.700Z,102224.03
2023-02-02T18:09:17.226Z,102220.69
2023-02-02T18:12:02.547Z,102223.25
2023-02-02T18:14:47.873Z,102234.53
2023-02-02T18:17:34.120Z,102233.69
2023-02-02T18:20:20.759Z,102238.25
2023-02-02T18:23:06.423Z,102244.59
2023-02-02T18:25:53.063Z,102251.75
2023-02-02T18:28:39.312Z,102247.56
2023-02-02T18:31:25.134Z,102258.97
2023-02-02T18:34:10.754Z,102253.88
2023-02-02T18:36:56.350Z,102259.22
2023-02-02T18:39:41.689Z,102268.94
2023-02-02T18:42:30.066Z,102270.72
2023-02-02T18:45:15.457Z,102270.50
2023-02-02T18:48:00.921Z,102284.13
2023-02-02T18:50:46.282Z,102295.94
2023-02-02T18:53:32.392Z,102300.09
2023-02-02T18:56:17.974Z,102305.09
2023-02-02T18:59:05.534Z,102304.03
2023-02-02T19:01:51.248Z,102304.72
2023-02-02T19:04:36.368Z,102310.66
2023-02-02T19:07:40.470Z,102302.66
2023-02-02T19:10:27.745Z,102298.00
2023-02-02T19:13:19.545Z,102291.69
2023-02-02T19:16:14.653Z,102292.44
2023-02-02T19:19:23.353Z,102292.44
2023-02-02T19:22:26.866Z,102288.97
2023-02-02T19:25:13.324Z,102289.88
2023-02-02T19:28:09.197Z,102288.28
2023-02-02T19:30:56.959Z,102285.69
2023-02-02T19:33:46.369Z,102279.66
2023-02-02T19:36:32.034Z,102273.91
2023-02-02T19:39:22.072Z,102252.59
2023-02-02T19:42:11.681Z,102246.56
2023-02-02T19:44:57.041Z,102248.28
2023-02-02T19:47:44.634Z,102233.47
2023-02-02T19:50:38.856Z,102237.72
2023-02-02T19:53:30.066Z,102240.16
2023-02-02T19:56:35.048Z,102242.75
2023-02-02T19:59:21.697Z,102248.78
2023-02-02T20:02:34.824Z,102251.31
2023-02-02T20:05:28.325Z,102241.75
2023-02-02T20:08:43.212Z,102241.97
2023-02-02T20:11:38.599Z,102245.63
2023-02-02T20:14:30.222Z,102248.47
2023-02-02T20:17:29.105Z,102243.53
2023-02-02T20:20:26.012Z,102252.34
2023-02-02T20:23:37.140Z,102255.06
2023-02-02T20:26:29.272Z,102264.78
2023-02-02T20:29:28.011Z,102269.25
2023-02-02T20:32:26.693Z,102273.69
2023-02-02T20:35:24.442Z,102276.41
2023-02-02T20:38:36.471Z,102273.88
2023-02-02T20:41:21.922Z,102276.56
2023-02-02T20:44:07.477Z,102277.53
2023-02-02T20:46:53.606Z,102263.78
2023-02-02T20:49:39.661Z,102274.31
2023-02-02T20:52:26.297Z,102280.47
2023-02-02T20:55:12.537Z,102277.78
2023-02-02T20:57:57.949Z,102281.25
2023-02-02T21:00:43.547Z,102290.72
2023-02-02T21:03:28.844Z,102295.78
2023-02-02T21:06:14.248Z,102302.69
2023-02-02T21:08:59.944Z,102293.88
2023-02-02T21:11:45.388Z,102288.63
2023-02-02T21:14:30.679Z,102282.53
2023-02-02T21:17:16.371Z,102280.66
2023-02-02T21:20:01.578Z,102265.00
2023-02-02T21:22:47.327Z,102273.59
2023-02-02T21:25:32.886Z,102277.06
2023-02-02T21:28:18.310Z,102265.88
2023-02-02T21:31:04.184Z,102265.09
2023-02-02T21:33:53.234Z,102256.31
2023-02-02T21:36:43.211Z,102266.53
2023-02-02T21:39:34.888Z,102263.81
2023-02-02T21:42:22.755Z,102263.97
2023-02-02T21:45:35.585Z,102244.75
2023-02-02T21:48:32.918Z,102258.59
2023-02-02T21:51:23.108Z,102271.72
2023-02-02T21:54:25.245Z,102274.28
2023-02-02T21:57:17.707Z,102287.28
2023-02-02T22:00:28.220Z,102280.47
2023-02-02T22:03:31.882Z,102270.25
2023-02-02T22:06:36.421Z,102269.41
2023-02-02T22:09:27.706Z,102272.06
2023-02-02T22:12:22.385Z,102266.81
2023-02-02T22:15:18.460Z,102271.16
2023-02-02T22:18:36.544Z,102261.59
2023-02-02T22:21:22.973Z,102272.88
2023-02-02T22:24:12.509Z,102266.06
2023-02-02T22:26:59.215Z,102270.50
2023-02-02T22:29:45.102Z,102279.31
2023-02-02T22:32:30.562Z,102274.97
2023-02-02T22:35:16.034Z,102272.38
2023-02-02T22:38:02.418Z,102262.84
2023-02-02T22:40:49.204Z,102275.06
2023-02-02T22:43:34.481Z,102278.59
2023-02-02T22:46:20.096Z,102276.91
2023-02-02T22:49:05.317Z,102275.25
2023-02-02T22:51:52.307Z,102277.91
2023-02-02T22:54:39.695Z,102269.34
2023-02-02T22:57:25.309Z,102272.06
2023-02-02T23:00:24.035Z,102272.13
2023-02-02T23:03:09.503Z,102255.69
2023-02-02T23:05:55.260Z,102274.84
2023-02-02T23:08:40.683Z,102273.16
2023-02-02T23:11:26.105Z,102275.94
2023-02-02T23:14:12.014Z,102275.09
2023-02-02T23:16:57.308Z,102269.03
2023-02-02T23:19:42.493Z,102279.50
2023-02-02T23:22:27.733Z,102275.25
2023-02-02T23:25:14.071Z,102275.31
2023-02-02T23:27:59.402Z,102281.34
2023-02-02T23:30:44.634Z,102288.25
2023-02-02T23:33:29.877Z,102284.84
2023-02-02T23:36:15.080Z,102306.63
2023-02-02T23:39:00.452Z,102297.06
2023-02-02T23:41:45.801Z,102318.84
2023-02-02T23:44:31.234Z,102308.44
2023-02-02T23:47:16.858Z,102297.06
2023-02-02T23:50:05.214Z,102299.63
2023-02-02T23:52:50.631Z,102303.06
2023-02-02T23:55:36.511Z,102299.59
2023-02-02T23:58:21.875Z,102314.34
